sensor_id;sensor_type;location;lat;lon;timestamp;P1;durP1;ratioP1;P2;durP2;ratioP2
73869;SDS011;64924;42.140;24.762;2023-06-14T00:00:09;7.82;;;7.13;;
73869;SDS011;64924;42.140;24.762;2023-06-14T00:02:37;8.13;;;6.85;;
73869;SDS011;64924;42.140;24.762;2023-06-14T00:05:05;10.38;;;6.72;;
73869;SDS011;64924;42.140;24.762;2023-06-14T00:07:35;11.25;;;7.63;;
73869;SDS011;64924;42.140;24.762;2023-06-14T00:10:02;10.30;;;6.80;;
73869;SDS011;64924;42.140;24.762;2023-06-14T00:12:29;10.77;;;7.22;;
73869;SDS011;64924;42.140;24.762;2023-06-14T00:14:55;9.65;;;7.47;;
73869;SDS011;64924;42.140;24.762;2023-06-14T00:17:21;8.38;;;6.78;;
73869;SDS011;64924;42.140;24.762;2023-06-14T00:19:46;7.50;;;6.60;;
73869;SDS011;64924;42.140;24.762;2023-06-14T00:22:12;8.15;;;7.25;;
73869;SDS011;64924;42.140;24.762;2023-06-14T00:24:37;8.95;;;7.78;;
73869;SDS011;64924;42.140;24.762;2023-06-14T00:27:03;9.57;;;6.85;;
73869;SDS011;64924;42.140;24.762;2023-06-14T00:29:29;11.10;;;7.65;;
73869;SDS011;64924;42.140;24.762;2023-06-14T00:31:54;11.70;;;7.72;;
73869;SDS011;64924;42.140;24.762;2023-06-14T00:34:20;9.82;;;7.88;;
73869;SDS011;64924;42.140;24.762;2023-06-14T00:36:45;8.07;;;7.13;;
73869;SDS011;64924;42.140;24.762;2023-06-14T00:39:10;12.68;;;7.72;;
73869;SDS011;64924;42.140;24.762;2023-06-14T00:41:37;11.60;;;8.80;;
73869;SDS011;64924;42.140;24.762;2023-06-14T00:44:02;10.60;;;7.60;;
73869;SDS011;64924;42.140;24.762;2023-06-14T00:46:28;8.77;;;7.88;;
73869;SDS011;64924;42.140;24.762;2023-06-14T00:48:54;11.90;;;7.93;;
73869;SDS011;64924;42.140;24.762;2023-06-14T00:51:21;9.90;;;8.27;;
73869;SDS011;64924;42.140;24.762;2023-06-14T00:53:46;9.35;;;8.13;;
73869;SDS011;64924;42.140;24.762;2023-06-14T00:56:13;10.38;;;8.18;;
73869;SDS011;64924;42.140;24.762;2023-06-14T00:58:40;9.80;;;8.80;;
73869;SDS011;64924;42.140;24.762;2023-06-14T01:01:06;10.43;;;9.00;;
73869;SDS011;64924;42.140;24.762;2023-06-14T01:03:32;9.75;;;8.10;;
73869;SDS011;64924;42.140;24.762;2023-06-14T01:08:50;10.05;;;8.25;;
73869;SDS011;64924;42.140;24.762;2023-06-14T01:11:44;9.02;;;7.95;;
73869;SDS011;64924;42.140;24.762;2023-06-14T01:14:12;12.15;;;8.30;;
73869;SDS011;64924;42.140;24.762;2023-06-14T01:16:39;12.27;;;8.43;;
73869;SDS011;64924;42.140;24.762;2023-06-14T01:19:05;9.93;;;7.93;;
73869;SDS011;64924;42.140;24.762;2023-06-14T01:21:34;10.27;;;8.30;;
73869;SDS011;64924;42.140;24.762;2023-06-14T01:24:06;12.23;;;9.20;;
73869;SDS011;64924;42.140;24.762;2023-06-14T01:26:34;11.00;;;8.60;;
73869;SDS011;64924;42.140;24.762;2023-06-14T01:29:02;10.18;;;8.40;;
73869;SDS011;64924;42.140;24.762;2023-06-14T01:31:28;12.00;;;9.55;;
73869;SDS011;64924;42.140;24.762;2023-06-14T01:33:55;9.93;;;8.93;;
73869;SDS011;64924;42.140;24.762;2023-06-14T01:36:20;10.13;;;9.10;;
73869;SDS011;64924;42.140;24.762;2023-06-14T01:38:48;11.15;;;9.10;;
73869;SDS011;64924;42.140;24.762;2023-06-14T01:41:16;10.32;;;9.02;;
73869;SDS011;64924;42.140;24.762;2023-06-14T01:43:43;12.07;;;9.35;;
73869;SDS011;64924;42.140;24.762;2023-06-14T01:46:10;10.20;;;8.27;;
73869;SDS011;64924;42.140;24.762;2023-06-14T01:48:37;11.32;;;9.10;;
73869;SDS011;64924;42.140;24.762;2023-06-14T01:51:03;10.75;;;8.82;;
73869;SDS011;64924;42.140;24.762;2023-06-14T01:53:28;10.23;;;8.60;;
73869;SDS011;64924;42.140;24.762;2023-06-14T01:55:54;10.75;;;8.52;;
73869;SDS011;64924;42.140;24.762;2023-06-14T01:58:20;13.07;;;8.55;;
73869;SDS011;64924;42.140;24.762;2023-06-14T02:00:46;14.38;;;8.90;;
73869;SDS011;64924;42.140;24.762;2023-06-14T02:03:12;9.57;;;8.27;;
73869;SDS011;64924;42.140;24.762;2023-06-14T02:05:38;10.75;;;9.43;;
73869;SDS011;64924;42.140;24.762;2023-06-14T02:08:05;10.02;;;8.32;;
73869;SDS011;64924;42.140;24.762;2023-06-14T02:10:31;10.90;;;9.15;;
73869;SDS011;64924;42.140;24.762;2023-06-14T02:12:56;11.30;;;8.85;;
73869;SDS011;64924;42.140;24.762;2023-06-14T02:15:22;11.05;;;9.43;;
73869;SDS011;64924;42.140;24.762;2023-06-14T02:17:48;10.75;;;8.48;;
73869;SDS011;64924;42.140;24.762;2023-06-14T02:20:14;11.15;;;9.82;;
73869;SDS011;64924;42.140;24.762;2023-06-14T02:22:40;11.77;;;9.32;;
73869;SDS011;64924;42.140;24.762;2023-06-14T02:25:06;10.88;;;7.97;;
73869;SDS011;64924;42.140;24.762;2023-06-14T02:27:33;11.13;;;7.32;;
73869;SDS011;64924;42.140;24.762;2023-06-14T02:29:58;12.00;;;8.13;;
73869;SDS011;64924;42.140;24.762;2023-06-14T02:32:25;8.88;;;7.53;;
73869;SDS011;64924;42.140;24.762;2023-06-14T02:34:52;9.55;;;7.35;;
73869;SDS011;64924;42.140;24.762;2023-06-14T02:37:18;11.25;;;7.50;;
73869;SDS011;64924;42.140;24.762;2023-06-14T02:39:44;10.55;;;7.93;;
73869;SDS011;64924;42.140;24.762;2023-06-14T02:42:10;9.30;;;7.78;;
73869;SDS011;64924;42.140;24.762;2023-06-14T02:44:36;10.93;;;8.38;;
73869;SDS011;64924;42.140;24.762;2023-06-14T02:47:01;8.70;;;7.57;;
73869;SDS011;64924;42.140;24.762;2023-06-14T02:49:27;9.88;;;8.50;;
73869;SDS011;64924;42.140;24.762;2023-06-14T02:51:53;13.13;;;8.85;;
73869;SDS011;64924;42.140;24.762;2023-06-14T02:54:18;12.20;;;8.30;;
73869;SDS011;64924;42.140;24.762;2023-06-14T02:56:44;14.60;;;8.80;;
73869;SDS011;64924;42.140;24.762;2023-06-14T02:59:10;11.48;;;7.75;;
73869;SDS011;64924;42.140;24.762;2023-06-14T03:01:35;15.15;;;7.43;;
73869;SDS011;64924;42.140;24.762;2023-06-14T03:04:06;12.13;;;8.40;;
73869;SDS011;64924;42.140;24.762;2023-06-14T03:06:32;10.95;;;7.90;;
73869;SDS011;64924;42.140;24.762;2023-06-14T03:08:58;9.27;;;8.38;;
73869;SDS011;64924;42.140;24.762;2023-06-14T03:11:28;14.25;;;7.65;;
73869;SDS011;64924;42.140;24.762;2023-06-14T03:13:54;11.80;;;7.45;;
73869;SDS011;64924;42.140;24.762;2023-06-14T03:16:21;12.18;;;7.63;;
73869;SDS011;64924;42.140;24.762;2023-06-14T03:18:49;11.07;;;7.20;;
73869;SDS011;64924;42.140;24.762;2023-06-14T03:21:15;9.70;;;6.70;;
73869;SDS011;64924;42.140;24.762;2023-06-14T03:23:41;12.55;;;6.90;;
73869;SDS011;64924;42.140;24.762;2023-06-14T03:26:07;11.48;;;6.90;;
73869;SDS011;64924;42.140;24.762;2023-06-14T03:28:33;13.15;;;7.30;;
73869;SDS011;64924;42.140;24.762;2023-06-14T03:30:59;10.45;;;7.20;;
73869;SDS011;64924;42.140;24.762;2023-06-14T03:33:24;8.18;;;6.93;;
73869;SDS011;64924;42.140;24.762;2023-06-14T03:35:50;8.70;;;7.13;;
73869;SDS011;64924;42.140;24.762;2023-06-14T03:38:17;11.95;;;7.32;;
73869;SDS011;64924;42.140;24.762;2023-06-14T03:40:42;10.35;;;7.32;;
73869;SDS011;64924;42.140;24.762;2023-06-14T03:43:08;9.60;;;6.95;;
73869;SDS011;64924;42.140;24.762;2023-06-14T03:45:33;11.95;;;7.22;;
73869;SDS011;64924;42.140;24.762;2023-06-14T03:47:59;7.38;;;6.32;;
73869;SDS011;64924;42.140;24.762;2023-06-14T03:50:25;9.75;;;6.97;;
73869;SDS011;64924;42.140;24.762;2023-06-14T03:52:52;12.45;;;7.20;;
73869;SDS011;64924;42.140;24.762;2023-06-14T03:55:18;9.77;;;7.30;;
73869;SDS011;64924;42.140;24.762;2023-06-14T03:57:43;13.05;;;7.03;;
73869;SDS011;64924;42.140;24.762;2023-06-14T04:00:09;11.18;;;7.22;;
73869;SDS011;64924;42.140;24.762;2023-06-14T04:02:36;12.70;;;7.35;;
73869;SDS011;64924;42.140;24.762;2023-06-14T04:05:02;10.50;;;7.20;;
73869;SDS011;64924;42.140;24.762;2023-06-14T04:07:28;11.38;;;7.53;;
73869;SDS011;64924;42.140;24.762;2023-06-14T04:09:54;9.02;;;6.80;;
73869;SDS011;64924;42.140;24.762;2023-06-14T04:12:19;11.18;;;7.53;;
73869;SDS011;64924;42.140;24.762;2023-06-14T04:14:45;11.90;;;6.82;;
73869;SDS011;64924;42.140;24.762;2023-06-14T04:17:11;13.27;;;7.80;;
73869;SDS011;64924;42.140;24.762;2023-06-14T04:19:36;14.73;;;8.88;;
73869;SDS011;64924;42.140;24.762;2023-06-14T04:22:02;9.57;;;8.18;;
73869;SDS011;64924;42.140;24.762;2023-06-14T04:24:28;13.40;;;7.47;;
73869;SDS011;64924;42.140;24.762;2023-06-14T04:27:00;9.55;;;7.60;;
73869;SDS011;64924;42.140;24.762;2023-06-14T04:29:26;14.10;;;7.32;;
73869;SDS011;64924;42.140;24.762;2023-06-14T04:31:54;10.43;;;6.63;;
73869;SDS011;64924;42.140;24.762;2023-06-14T04:34:24;16.08;;;7.53;;
73869;SDS011;64924;42.140;24.762;2023-06-14T04:36:57;12.70;;;6.65;;
73869;SDS011;64924;42.140;24.762;2023-06-14T04:39:24;12.98;;;6.85;;
73869;SDS011;64924;42.140;24.762;2023-06-14T04:41:51;10.77;;;6.93;;
73869;SDS011;64924;42.140;24.762;2023-06-14T04:44:21;16.10;;;6.57;;
73869;SDS011;64924;42.140;24.762;2023-06-14T04:46:54;8.50;;;5.80;;
73869;SDS011;64924;42.140;24.762;2023-06-14T04:49:24;11.70;;;7.10;;
73869;SDS011;64924;42.140;24.762;2023-06-14T04:51:51;17.20;;;6.50;;
73869;SDS011;64924;42.140;24.762;2023-06-14T04:54:22;10.98;;;6.85;;
73869;SDS011;64924;42.140;24.762;2023-06-14T04:56:49;8.45;;;6.47;;
73869;SDS011;64924;42.140;24.762;2023-06-14T04:59:15;12.50;;;7.35;;
73869;SDS011;64924;42.140;24.762;2023-06-14T05:01:42;9.77;;;8.15;;
73869;SDS011;64924;42.140;24.762;2023-06-14T05:04:12;11.93;;;8.07;;
73869;SDS011;64924;42.140;24.762;2023-06-14T05:06:38;14.73;;;7.85;;
73869;SDS011;64924;42.140;24.762;2023-06-14T05:09:04;10.30;;;7.85;;
73869;SDS011;64924;42.140;24.762;2023-06-14T05:11:29;15.07;;;9.07;;
73869;SDS011;64924;42.140;24.762;2023-06-14T05:13:55;16.90;;;10.02;;
73869;SDS011;64924;42.140;24.762;2023-06-14T05:16:23;15.48;;;9.63;;
73869;SDS011;64924;42.140;24.762;2023-06-14T05:18:50;17.67;;;13.38;;
73869;SDS011;64924;42.140;24.762;2023-06-14T05:21:17;22.85;;;15.18;;
73869;SDS011;64924;42.140;24.762;2023-06-14T05:23:44;17.98;;;10.65;;
73869;SDS011;64924;42.140;24.762;2023-06-14T05:26:10;13.10;;;10.43;;
73869;SDS011;64924;42.140;24.762;2023-06-14T05:28:36;12.75;;;10.85;;
73869;SDS011;64924;42.140;24.762;2023-06-14T05:31:01;15.40;;;11.00;;
73869;SDS011;64924;42.140;24.762;2023-06-14T05:33:27;17.65;;;10.68;;
73869;SDS011;64924;42.140;24.762;2023-06-14T05:35:53;20.73;;;11.65;;
73869;SDS011;64924;42.140;24.762;2023-06-14T05:38:19;14.68;;;10.60;;
73869;SDS011;64924;42.140;24.762;2023-06-14T05:40:44;12.18;;;9.60;;
73869;SDS011;64924;42.140;24.762;2023-06-14T05:43:10;13.93;;;10.23;;
73869;SDS011;64924;42.140;24.762;2023-06-14T05:45:35;16.60;;;10.65;;
73869;SDS011;64924;42.140;24.762;2023-06-14T05:48:01;12.60;;;10.52;;
73869;SDS011;64924;42.140;24.762;2023-06-14T05:50:26;16.52;;;9.60;;
73869;SDS011;64924;42.140;24.762;2023-06-14T05:52:53;15.30;;;10.15;;
73869;SDS011;64924;42.140;24.762;2023-06-14T05:55:18;12.35;;;9.95;;
73869;SDS011;64924;42.140;24.762;2023-06-14T05:57:44;13.63;;;10.77;;
73869;SDS011;64924;42.140;24.762;2023-06-14T06:00:11;15.68;;;10.40;;
73869;SDS011;64924;42.140;24.762;2023-06-14T06:02:39;12.93;;;11.57;;
73869;SDS011;64924;42.140;24.762;2023-06-14T06:05:06;16.65;;;11.32;;
73869;SDS011;64924;42.140;24.762;2023-06-14T06:07:32;13.15;;;11.40;;
73869;SDS011;64924;42.140;24.762;2023-06-14T06:09:57;14.27;;;11.73;;
73869;SDS011;64924;42.140;24.762;2023-06-14T06:12:23;13.32;;;11.43;;
73869;SDS011;64924;42.140;24.762;2023-06-14T06:14:48;15.98;;;11.35;;
73869;SDS011;64924;42.140;24.762;2023-06-14T06:17:14;14.02;;;11.18;;
73869;SDS011;64924;42.140;24.762;2023-06-14T06:19:39;12.93;;;11.52;;
73869;SDS011;64924;42.140;24.762;2023-06-14T06:22:05;16.38;;;10.80;;
73869;SDS011;64924;42.140;24.762;2023-06-14T06:24:31;13.75;;;11.20;;
73869;SDS011;64924;42.140;24.762;2023-06-14T06:26:57;12.60;;;11.30;;
73869;SDS011;64924;42.140;24.762;2023-06-14T06:29:22;17.80;;;11.52;;
73869;SDS011;64924;42.140;24.762;2023-06-14T06:31:48;14.27;;;10.73;;
73869;SDS011;64924;42.140;24.762;2023-06-14T06:34:13;21.50;;;10.48;;
73869;SDS011;64924;42.140;24.762;2023-06-14T06:36:39;12.20;;;10.13;;
73869;SDS011;64924;42.140;24.762;2023-06-14T06:39:04;12.05;;;9.68;;
73869;SDS011;64924;42.140;24.762;2023-06-14T06:41:35;10.77;;;9.65;;
73869;SDS011;64924;42.140;24.762;2023-06-14T06:44:05;10.90;;;8.75;;
73869;SDS011;64924;42.140;24.762;2023-06-14T06:46:31;11.70;;;8.82;;
73869;SDS011;64924;42.140;24.762;2023-06-14T06:48:57;10.25;;;8.40;;
73869;SDS011;64924;42.140;24.762;2023-06-14T06:51:23;12.63;;;8.93;;
73869;SDS011;64924;42.140;24.762;2023-06-14T06:53:52;9.75;;;8.85;;
73869;SDS011;64924;42.140;24.762;2023-06-14T06:56:19;12.27;;;9.10;;
73869;SDS011;64924;42.140;24.762;2023-06-14T06:58:45;11.77;;;10.52;;
73869;SDS011;64924;42.140;24.762;2023-06-14T07:01:10;11.95;;;10.57;;
73869;SDS011;64924;42.140;24.762;2023-06-14T07:03:36;16.35;;;9.63;;
73869;SDS011;64924;42.140;24.762;2023-06-14T07:06:02;12.88;;;10.35;;
73869;SDS011;64924;42.140;24.762;2023-06-14T07:08:28;14.25;;;10.90;;
73869;SDS011;64924;42.140;24.762;2023-06-14T07:10:53;12.13;;;10.77;;
73869;SDS011;64924;42.140;24.762;2023-06-14T07:13:19;16.80;;;11.60;;
73869;SDS011;64924;42.140;24.762;2023-06-14T07:15:44;14.05;;;10.68;;
73869;SDS011;64924;42.140;24.762;2023-06-14T07:18:10;15.48;;;11.02;;
73869;SDS011;64924;42.140;24.762;2023-06-14T07:20:35;15.30;;;11.32;;
73869;SDS011;64924;42.140;24.762;2023-06-14T07:23:03;15.88;;;10.98;;
73869;SDS011;64924;42.140;24.762;2023-06-14T07:25:29;17.00;;;12.98;;
73869;SDS011;64924;42.140;24.762;2023-06-14T07:27:54;23.73;;;14.43;;
73869;SDS011;64924;42.140;24.762;2023-06-14T07:30:20;17.00;;;13.35;;
73869;SDS011;64924;42.140;24.762;2023-06-14T07:32:46;18.63;;;14.02;;
73869;SDS011;64924;42.140;24.762;2023-06-14T07:35:11;16.88;;;14.45;;
73869;SDS011;64924;42.140;24.762;2023-06-14T07:37:37;22.25;;;13.02;;
73869;SDS011;64924;42.140;24.762;2023-06-14T07:40:02;15.00;;;12.68;;
73869;SDS011;64924;42.140;24.762;2023-06-14T07:42:32;14.25;;;12.48;;
73869;SDS011;64924;42.140;24.762;2023-06-14T07:44:59;17.92;;;12.95;;
73869;SDS011;64924;42.140;24.762;2023-06-14T07:47:25;16.50;;;12.32;;
73869;SDS011;64924;42.140;24.762;2023-06-14T07:49:51;15.60;;;11.93;;
73869;SDS011;64924;42.140;24.762;2023-06-14T07:52:16;15.40;;;10.55;;
73869;SDS011;64924;42.140;24.762;2023-06-14T07:54:42;17.38;;;12.02;;
73869;SDS011;64924;42.140;24.762;2023-06-14T07:57:08;13.15;;;11.02;;
73869;SDS011;64924;42.140;24.762;2023-06-14T07:59:33;12.90;;;10.98;;
73869;SDS011;64924;42.140;24.762;2023-06-14T08:01:59;14.73;;;10.70;;
73869;SDS011;64924;42.140;24.762;2023-06-14T08:04:25;13.75;;;10.52;;
73869;SDS011;64924;42.140;24.762;2023-06-14T08:06:50;11.27;;;10.23;;
73869;SDS011;64924;42.140;24.762;2023-06-14T08:09:16;13.85;;;10.43;;
73869;SDS011;64924;42.140;24.762;2023-06-14T08:11:41;13.25;;;11.05;;
73869;SDS011;64924;42.140;24.762;2023-06-14T08:14:07;14.43;;;10.77;;
73869;SDS011;64924;42.140;24.762;2023-06-14T08:16:33;12.88;;;9.63;;
73869;SDS011;64924;42.140;24.762;2023-06-14T08:18:58;11.57;;;10.38;;
73869;SDS011;64924;42.140;24.762;2023-06-14T08:21:24;11.93;;;9.40;;
73869;SDS011;64924;42.140;24.762;2023-06-14T08:23:53;11.82;;;9.63;;
73869;SDS011;64924;42.140;24.762;2023-06-14T08:26:19;10.18;;;9.10;;
73869;SDS011;64924;42.140;24.762;2023-06-14T08:28:46;10.23;;;9.13;;
73869;SDS011;64924;42.140;24.762;2023-06-14T08:31:11;13.82;;;9.77;;
73869;SDS011;64924;42.140;24.762;2023-06-14T08:33:37;11.20;;;9.90;;
73869;SDS011;64924;42.140;24.762;2023-06-14T08:36:04;13.68;;;9.77;;
73869;SDS011;64924;42.140;24.762;2023-06-14T08:38:30;12.65;;;9.30;;
73869;SDS011;64924;42.140;24.762;2023-06-14T08:40:58;10.27;;;9.18;;
73869;SDS011;64924;42.140;24.762;2023-06-14T08:43:26;9.57;;;8.68;;
73869;SDS011;64924;42.140;24.762;2023-06-14T08:45:53;11.45;;;8.65;;
73869;SDS011;64924;42.140;24.762;2023-06-14T08:48:25;14.88;;;8.38;;
73869;SDS011;64924;42.140;24.762;2023-06-14T08:50:51;9.45;;;7.90;;
73869;SDS011;64924;42.140;24.762;2023-06-14T08:53:26;10.38;;;9.30;;
73869;SDS011;64924;42.140;24.762;2023-06-14T08:55:54;14.55;;;9.20;;
73869;SDS011;64924;42.140;24.762;2023-06-14T08:58:20;12.45;;;9.10;;
73869;SDS011;64924;42.140;24.762;2023-06-14T09:00:49;13.30;;;9.50;;
73869;SDS011;64924;42.140;24.762;2023-06-14T09:03:17;12.90;;;9.15;;
73869;SDS011;64924;42.140;24.762;2023-06-14T09:05:45;11.98;;;8.80;;
73869;SDS011;64924;42.140;24.762;2023-06-14T09:08:12;13.23;;;9.45;;
73869;SDS011;64924;42.140;24.762;2023-06-14T09:10:37;11.45;;;9.02;;
73869;SDS011;64924;42.140;24.762;2023-06-14T09:13:05;11.88;;;9.57;;
73869;SDS011;64924;42.140;24.762;2023-06-14T09:15:31;12.98;;;9.13;;
73869;SDS011;64924;42.140;24.762;2023-06-14T09:17:57;11.38;;;9.00;;
73869;SDS011;64924;42.140;24.762;2023-06-14T09:20:23;12.05;;;9.70;;
73869;SDS011;64924;42.140;24.762;2023-06-14T09:22:50;12.82;;;8.55;;
73869;SDS011;64924;42.140;24.762;2023-06-14T09:25:15;13.45;;;9.65;;
73869;SDS011;64924;42.140;24.762;2023-06-14T09:27:43;11.18;;;9.23;;
73869;SDS011;64924;42.140;24.762;2023-06-14T09:30:09;11.15;;;10.00;;
73869;SDS011;64924;42.140;24.762;2023-06-14T09:32:38;10.68;;;9.25;;
73869;SDS011;64924;42.140;24.762;2023-06-14T09:35:08;11.70;;;9.48;;
73869;SDS011;64924;42.140;24.762;2023-06-14T09:37:34;13.75;;;9.63;;
73869;SDS011;64924;42.140;24.762;2023-06-14T09:40:00;14.48;;;9.38;;
73869;SDS011;64924;42.140;24.762;2023-06-14T09:42:26;11.18;;;10.05;;
73869;SDS011;64924;42.140;24.762;2023-06-14T09:44:53;14.23;;;9.70;;
73869;SDS011;64924;42.140;24.762;2023-06-14T09:47:20;13.35;;;10.45;;
73869;SDS011;64924;42.140;24.762;2023-06-14T09:49:47;15.93;;;10.40;;
73869;SDS011;64924;42.140;24.762;2023-06-14T09:52:14;10.25;;;9.25;;
73869;SDS011;64924;42.140;24.762;2023-06-14T09:54:42;10.77;;;9.55;;
73869;SDS011;64924;42.140;24.762;2023-06-14T09:57:11;9.45;;;8.57;;
73869;SDS011;64924;42.140;24.762;2023-06-14T09:59:45;11.40;;;9.00;;
73869;SDS011;64924;42.140;24.762;2023-06-14T10:02:24;13.68;;;9.30;;
73869;SDS011;64924;42.140;24.762;2023-06-14T10:05:11;11.63;;;9.73;;
73869;SDS011;64924;42.140;24.762;2023-06-14T10:10:24;11.43;;;9.18;;
73869;SDS011;64924;42.140;24.762;2023-06-14T10:12:50;12.57;;;9.18;;
73869;SDS011;64924;42.140;24.762;2023-06-14T10:15:22;13.65;;;9.77;;
73869;SDS011;64924;42.140;24.762;2023-06-14T10:17:58;14.68;;;11.57;;
73869;SDS011;64924;42.140;24.762;2023-06-14T10:20:39;19.67;;;11.82;;
73869;SDS011;64924;42.140;24.762;2023-06-14T10:23:15;12.48;;;11.10;;
73869;SDS011;64924;42.140;24.762;2023-06-14T10:25:43;13.52;;;10.45;;
73869;SDS011;64924;42.140;24.762;2023-06-14T10:28:19;12.13;;;11.02;;
73869;SDS011;64924;42.140;24.762;2023-06-14T10:33:32;13.40;;;10.25;;
73869;SDS011;64924;42.140;24.762;2023-06-14T10:39:09;13.75;;;10.48;;
73869;SDS011;64924;42.140;24.762;2023-06-14T10:41:41;13.07;;;10.43;;
73869;SDS011;64924;42.140;24.762;2023-06-14T10:46:38;13.32;;;10.32;;
73869;SDS011;64924;42.140;24.762;2023-06-14T10:49:04;13.00;;;10.45;;
73869;SDS011;64924;42.140;24.762;2023-06-14T10:51:38;11.10;;;10.07;;
73869;SDS011;64924;42.140;24.762;2023-06-14T10:54:11;12.93;;;11.57;;
73869;SDS011;64924;42.140;24.762;2023-06-14T10:56:38;12.88;;;9.90;;
73869;SDS011;64924;42.140;24.762;2023-06-14T10:59:16;11.48;;;10.15;;
73869;SDS011;64924;42.140;24.762;2023-06-14T11:04:48;12.55;;;10.13;;
73869;SDS011;64924;42.140;24.762;2023-06-14T11:10:44;10.80;;;9.70;;
73869;SDS011;64924;42.140;24.762;2023-06-14T11:13:03;10.88;;;9.70;;
73869;SDS011;64924;42.140;24.762;2023-06-14T11:15:29;11.07;;;10.02;;
73869;SDS011;64924;42.140;24.762;2023-06-14T11:17:56;12.70;;;10.63;;
73869;SDS011;64924;42.140;24.762;2023-06-14T11:20:27;14.43;;;10.10;;
73869;SDS011;64924;42.140;24.762;2023-06-14T11:22:55;13.15;;;10.60;;
73869;SDS011;64924;42.140;24.762;2023-06-14T11:25:20;15.27;;;10.77;;
73869;SDS011;64924;42.140;24.762;2023-06-14T11:27:46;12.70;;;10.25;;
73869;SDS011;64924;42.140;24.762;2023-06-14T11:30:14;13.25;;;11.23;;
73869;SDS011;64924;42.140;24.762;2023-06-14T11:32:40;13.27;;;11.10;;
73869;SDS011;64924;42.140;24.762;2023-06-14T11:35:06;11.40;;;10.23;;
73869;SDS011;64924;42.140;24.762;2023-06-14T11:37:32;12.43;;;11.13;;
73869;SDS011;64924;42.140;24.762;2023-06-14T11:40:02;11.98;;;10.00;;
73869;SDS011;64924;42.140;24.762;2023-06-14T11:42:33;11.45;;;10.27;;
73869;SDS011;64924;42.140;24.762;2023-06-14T11:44:59;12.85;;;11.20;;
73869;SDS011;64924;42.140;24.762;2023-06-14T11:47:33;15.15;;;12.73;;
73869;SDS011;64924;42.140;24.762;2023-06-14T11:49:59;13.13;;;11.55;;
73869;SDS011;64924;42.140;24.762;2023-06-14T11:52:25;12.32;;;11.07;;
73869;SDS011;64924;42.140;24.762;2023-06-14T11:54:51;12.57;;;11.00;;
73869;SDS011;64924;42.140;24.762;2023-06-14T11:57:20;13.32;;;11.93;;
73869;SDS011;64924;42.140;24.762;2023-06-14T11:59:45;12.73;;;11.40;;
73869;SDS011;64924;42.140;24.762;2023-06-14T12:02:18;15.93;;;11.68;;
73869;SDS011;64924;42.140;24.762;2023-06-14T12:04:47;14.23;;;12.80;;
73869;SDS011;64924;42.140;24.762;2023-06-14T12:07:14;15.35;;;11.68;;
73869;SDS011;64924;42.140;24.762;2023-06-14T12:09:46;15.93;;;11.98;;
73869;SDS011;64924;42.140;24.762;2023-06-14T12:12:28;14.23;;;12.52;;
73869;SDS011;64924;42.140;24.762;2023-06-14T12:14:57;14.80;;;12.63;;
73869;SDS011;64924;42.140;24.762;2023-06-14T12:17:22;15.00;;;13.50;;
73869;SDS011;64924;42.140;24.762;2023-06-14T12:19:48;14.15;;;12.80;;
73869;SDS011;64924;42.140;24.762;2023-06-14T12:22:15;14.52;;;13.20;;
73869;SDS011;64924;42.140;24.762;2023-06-14T12:24:45;14.45;;;12.75;;
73869;SDS011;64924;42.140;24.762;2023-06-14T12:27:10;15.13;;;13.50;;
73869;SDS011;64924;42.140;24.762;2023-06-14T12:32:06;14.82;;;13.38;;
73869;SDS011;64924;42.140;24.762;2023-06-14T12:34:32;14.90;;;13.35;;
73869;SDS011;64924;42.140;24.762;2023-06-14T12:36:57;15.43;;;13.13;;
73869;SDS011;64924;42.140;24.762;2023-06-14T12:39:23;18.75;;;13.93;;
73869;SDS011;64924;42.140;24.762;2023-06-14T12:41:50;16.60;;;12.77;;
73869;SDS011;64924;42.140;24.762;2023-06-14T12:44:15;14.30;;;12.90;;
73869;SDS011;64924;42.140;24.762;2023-06-14T12:46:41;14.43;;;12.95;;
73869;SDS011;64924;42.140;24.762;2023-06-14T12:49:08;17.73;;;13.77;;
73869;SDS011;64924;42.140;24.762;2023-06-14T12:51:37;14.23;;;12.75;;
73869;SDS011;64924;42.140;24.762;2023-06-14T12:54:04;17.08;;;13.32;;
73869;SDS011;64924;42.140;24.762;2023-06-14T12:56:29;16.88;;;12.73;;
73869;SDS011;64924;42.140;24.762;2023-06-14T12:58:55;12.52;;;11.07;;
73869;SDS011;64924;42.140;24.762;2023-06-14T13:01:20;14.80;;;12.13;;
73869;SDS011;64924;42.140;24.762;2023-06-14T13:03:46;12.80;;;10.70;;
73869;SDS011;64924;42.140;24.762;2023-06-14T13:06:12;12.82;;;11.15;;
73869;SDS011;64924;42.140;24.762;2023-06-14T13:08:38;13.43;;;11.50;;
73869;SDS011;64924;42.140;24.762;2023-06-14T13:11:03;12.77;;;11.38;;
73869;SDS011;64924;42.140;24.762;2023-06-14T13:13:29;13.00;;;11.68;;
73869;SDS011;64924;42.140;24.762;2023-06-14T13:15:54;12.95;;;11.52;;
73869;SDS011;64924;42.140;24.762;2023-06-14T13:18:20;13.20;;;11.90;;
73869;SDS011;64924;42.140;24.762;2023-06-14T13:20:46;13.77;;;12.38;;
73869;SDS011;64924;42.140;24.762;2023-06-14T13:23:12;14.02;;;12.10;;
73869;SDS011;64924;42.140;24.762;2023-06-14T13:25:38;15.18;;;11.65;;
73869;SDS011;64924;42.140;24.762;2023-06-14T13:28:04;15.18;;;12.15;;
73869;SDS011;64924;42.140;24.762;2023-06-14T13:30:31;13.60;;;12.40;;
73869;SDS011;64924;42.140;24.762;2023-06-14T13:32:57;13.27;;;11.98;;
73869;SDS011;64924;42.140;24.762;2023-06-14T13:35:23;13.88;;;12.48;;
73869;SDS011;64924;42.140;24.762;2023-06-14T13:37:49;14.38;;;12.23;;
73869;SDS011;64924;42.140;24.762;2023-06-14T13:40:15;14.93;;;12.32;;
73869;SDS011;64924;42.140;24.762;2023-06-14T13:42:41;14.38;;;13.00;;
73869;SDS011;64924;42.140;24.762;2023-06-14T13:45:06;13.63;;;12.02;;
73869;SDS011;64924;42.140;24.762;2023-06-14T13:47:33;13.45;;;12.27;;
73869;SDS011;64924;42.140;24.762;2023-06-14T13:49:58;13.70;;;11.80;;
73869;SDS011;64924;42.140;24.762;2023-06-14T13:52:24;12.80;;;11.50;;
73869;SDS011;64924;42.140;24.762;2023-06-14T13:54:50;12.68;;;11.48;;
73869;SDS011;64924;42.140;24.762;2023-06-14T13:57:16;13.07;;;11.77;;
73869;SDS011;64924;42.140;24.762;2023-06-14T13:59:43;11.43;;;10.32;;
73869;SDS011;64924;42.140;24.762;2023-06-14T14:02:09;12.07;;;10.93;;
73869;SDS011;64924;42.140;24.762;2023-06-14T14:04:36;11.43;;;9.68;;
73869;SDS011;64924;42.140;24.762;2023-06-14T14:07:02;9.35;;;8.35;;
73869;SDS011;64924;42.140;24.762;2023-06-14T14:09:29;10.75;;;8.93;;
73869;SDS011;64924;42.140;24.762;2023-06-14T14:11:55;8.68;;;7.85;;
73869;SDS011;64924;42.140;24.762;2023-06-14T14:14:21;10.63;;;7.97;;
73869;SDS011;64924;42.140;24.762;2023-06-14T14:16:47;8.00;;;7.05;;
73869;SDS011;64924;42.140;24.762;2023-06-14T14:19:13;8.52;;;7.03;;
73869;SDS011;64924;42.140;24.762;2023-06-14T14:21:38;7.05;;;6.45;;
73869;SDS011;64924;42.140;24.762;2023-06-14T14:24:04;7.38;;;6.68;;
73869;SDS011;64924;42.140;24.762;2023-06-14T14:26:30;9.90;;;6.28;;
73869;SDS011;64924;42.140;24.762;2023-06-14T14:28:55;6.85;;;5.47;;
73869;SDS011;64924;42.140;24.762;2023-06-14T14:31:21;7.07;;;6.03;;
73869;SDS011;64924;42.140;24.762;2023-06-14T14:33:46;6.88;;;6.18;;
73869;SDS011;64924;42.140;24.762;2023-06-14T14:36:12;8.00;;;6.25;;
73869;SDS011;64924;42.140;24.762;2023-06-14T14:38:38;6.50;;;5.38;;